Time;durP1;ratioP1;P1;durP2;ratioP2;P2;SDS_P1;SDS_P2;PMS_P1;PMS_P2;Temp;Humidity;BMP_temperature;BMP_pressure;BME280_temperature;BME280_humidity;BME280_pressure;Samples;Min_cycle;Max_cycle;Signal;HPM_P1;HPM_P2
2024/02/06 00:00:38;;;;;;;10.80;7.32;;;;;;;;;;10322979;28;20030;-60
2024/02/06 00:05:38;;;;;;;13.30;7.60;;;;;;;;;;10321345;28;20030;-60
2024/02/06 00:10:39;;;;;;;12.00;7.25;;;;;;;;;;10321193;28;20042;-60
2024/02/06 00:15:39;;;;;;;15.35;7.45;;;;;;;;;;10323169;28;20027;-60
2024/02/06 00:20:40;;;;;;;12.93;7.30;;;;;;;;;;10311476;28;20026;-60
2024/02/06 00:25:41;;;;;;;12.13;7.57;;;;;;;;;;10323345;28;20030;-60
2024/02/06 00:30:41;;;;;;;10.43;7.22;;;;;;;;;;10323090;28;20172;-60
2024/02/06 00:35:42;;;;;;;10.75;7.38;;;;;;;;;;10322516;28;20185;-60
2024/02/06 00:40:42;;;;;;;8.05;6.40;;;;;;;;;;10323676;28;20041;-60
2024/02/06 00:45:43;;;;;;;10.23;7.68;;;;;;;;;;10323372;28;20038;-60
2024/02/06 00:50:45;;;;;;;11.55;7.20;;;;;;;;;;10322489;28;20037;-59
2024/02/06 00:55:46;;;;;;;11.30;7.53;;;;;;;;;;10321271;28;20089;-59
2024/02/06 01:00:46;;;;;;;9.40;6.78;;;;;;;;;;10321763;28;20449;-59
2024/02/06 01:05:47;;;;;;;11.27;6.82;;;;;;;;;;10320827;28;20149;-60
2024/02/06 01:10:47;;;;;;;12.55;7.05;;;;;;;;;;10322230;28;20033;-60
2024/02/06 01:15:48;;;;;;;9.07;7.20;;;;;;;;;;10320502;28;20105;-59
2024/02/06 01:20:49;;;;;;;9.30;6.45;;;;;;;;;;10324730;28;20034;-60
2024/02/06 01:25:49;;;;;;;9.02;6.88;;;;;;;;;;10328686;28;20082;-60
2024/02/06 01:30:50;;;;;;;11.23;7.00;;;;;;;;;;10327286;28;20033;-60
2024/02/06 01:35:50;;;;;;;9.48;6.38;;;;;;;;;;10327974;28;20050;-60
2024/02/06 01:40:51;;;;;;;8.45;6.18;;;;;;;;;;10327235;28;20423;-61
2024/02/06 01:45:54;;;;;;;10.80;6.82;;;;;;;;;;10327279;28;20557;-60
2024/02/06 01:50:55;;;;;;;10.65;6.78;;;;;;;;;;10326942;28;20054;-59
2024/02/06 01:55:55;;;;;;;11.25;6.70;;;;;;;;;;10322969;28;20030;-59
2024/02/06 02:00:57;;;;;;;7.22;6.28;;;;;;;;;;10326905;28;20457;-60
2024/02/06 02:05:58;;;;;;;8.02;6.18;;;;;;;;;;10326481;28;20042;-61
2024/02/06 02:10:58;;;;;;;9.48;5.88;;;;;;;;;;10326346;28;20630;-60
2024/02/06 02:15:59;;;;;;;10.43;6.30;;;;;;;;;;10326605;28;20320;-59
2024/02/06 02:21:11;;;;;;;8.18;6.50;;;;;;;;;;10325526;28;20038;-59
2024/02/06 02:26:13;;;;;;;7.55;6.68;;;;;;;;;;10321413;28;20092;-59
2024/02/06 02:31:14;;;;;;;8.50;6.22;;;;;;;;;;10325799;28;20450;-59
2024/02/06 02:36:15;;;;;;;8.85;6.18;;;;;;;;;;10323565;28;20044;-60
2024/02/06 02:41:15;;;;;;;7.57;6.05;;;;;;;;;;10324769;28;20037;-60
2024/02/06 02:46:16;;;;;;;9.02;6.35;;;;;;;;;;10327493;28;20622;-60
2024/02/06 02:51:16;;;;;;;7.50;6.03;;;;;;;;;;10326710;28;20030;-60
2024/02/06 02:56:17;;;;;;;7.65;6.13;;;;;;;;;;10322111;28;20038;-60
2024/02/06 03:01:18;;;;;;;7.35;5.82;;;;;;;;;;10323681;28;20031;-59
2024/02/06 03:06:19;;;;;;;9.82;6.00;;;;;;;;;;10316160;28;20035;-59
2024/02/06 03:11:20;;;;;;;8.27;5.63;;;;;;;;;;10324588;28;20023;-60
2024/02/06 03:16:21;;;;;;;7.25;5.63;;;;;;;;;;10324706;28;20034;-60
2024/02/06 03:21:21;;;;;;;7.22;5.50;;;;;;;;;;10324692;28;20355;-61
2024/02/06 03:26:22;;;;;;;7.68;6.13;;;;;;;;;;10324914;28;20029;-59
2024/02/06 03:31:23;;;;;;;6.30;5.03;;;;;;;;;;10315738;28;20429;-59
2024/02/06 03:36:24;;;;;;;7.70;5.85;;;;;;;;;;10324311;28;20050;-59
2024/02/06 03:41:24;;;;;;;7.65;5.57;;;;;;;;;;10322201;28;20394;-59
2024/02/06 03:46:25;;;;;;;7.10;5.40;;;;;;;;;;10323055;28;20035;-59
2024/02/06 03:51:26;;;;;;;6.97;5.80;;;;;;;;;;10323112;28;20034;-59
2024/02/06 03:56:26;;;;;;;7.03;5.43;;;;;;;;;;10323691;28;20486;-60
2024/02/06 04:01:28;;;;;;;6.32;5.20;;;;;;;;;;10321543;28;20052;-60
2024/02/06 04:06:28;;;;;;;6.13;4.93;;;;;;;;;;10319685;28;20031;-59
2024/02/06 04:11:29;;;;;;;14.27;5.38;;;;;;;;;;10321024;28;20030;-60
2024/02/06 04:16:30;;;;;;;7.25;5.35;;;;;;;;;;10321188;28;20034;-59
2024/02/06 04:21:30;;;;;;;6.38;5.15;;;;;;;;;;10321786;28;20453;-59
2024/02/06 04:26:31;;;;;;;7.30;5.35;;;;;;;;;;10321775;28;20474;-59
2024/02/06 04:31:32;;;;;;;5.93;5.13;;;;;;;;;;10322284;28;20031;-59
2024/02/06 04:36:32;;;;;;;12.27;4.95;;;;;;;;;;10321775;28;20500;-59
2024/02/06 04:41:36;;;;;;;9.15;5.72;;;;;;;;;;10322358;28;20053;-59
2024/02/06 04:46:36;;;;;;;7.07;5.25;;;;;;;;;;10322459;28;20498;-59
2024/02/06 04:51:37;;;;;;;8.07;5.07;;;;;;;;;;10321283;28;20029;-59
2024/02/06 04:56:37;;;;;;;6.65;4.93;;;;;;;;;;10323797;28;20022;-59
2024/02/06 05:01:38;;;;;;;6.43;5.20;;;;;;;;;;10329466;28;20104;-59
2024/02/06 05:06:39;;;;;;;10.25;5.70;;;;;;;;;;10320161;28;20075;-58
2024/02/06 05:11:39;;;;;;;6.40;5.57;;;;;;;;;;10329396;28;20030;-60
2024/02/06 05:16:40;;;;;;;6.70;5.18;;;;;;;;;;10328040;28;20035;-60
2024/02/06 05:21:41;;;;;;;4.93;4.53;;;;;;;;;;10329611;28;20030;-60
2024/02/06 05:26:42;;;;;;;5.45;4.95;;;;;;;;;;10329056;28;20050;-59
2024/02/06 05:31:42;;;;;;;5.88;4.82;;;;;;;;;;10330172;28;20077;-59
2024/02/06 05:36:45;;;;;;;6.65;4.82;;;;;;;;;;10328055;28;20043;-59
2024/02/06 05:41:45;;;;;;;5.22;4.72;;;;;;;;;;10327761;28;20065;-58
2024/02/06 05:46:46;;;;;;;7.82;5.05;;;;;;;;;;10323712;28;20034;-59
2024/02/06 05:51:46;;;;;;;5.82;5.22;;;;;;;;;;10327028;28;20041;-59
2024/02/06 05:56:48;;;;;;;5.68;5.05;;;;;;;;;;10328165;28;20077;-59
2024/02/06 06:01:48;;;;;;;10.35;5.28;;;;;;;;;;10327952;28;20561;-59
2024/02/06 06:06:49;;;;;;;7.22;5.10;;;;;;;;;;10320715;28;20033;-59
2024/02/06 06:11:49;;;;;;;5.43;4.78;;;;;;;;;;10327660;28;20034;-59
2024/02/06 06:16:50;;;;;;;5.68;5.00;;;;;;;;;;10328250;28;20034;-59
2024/02/06 06:21:50;;;;;;;8.02;4.97;;;;;;;;;;10327032;28;20023;-59
2024/02/06 06:26:51;;;;;;;6.05;5.00;;;;;;;;;;10325000;28;20022;-59
2024/02/06 06:31:51;;;;;;;5.93;4.55;;;;;;;;;;10328058;28;20033;-56
2024/02/06 06:36:52;;;;;;;5.18;4.68;;;;;;;;;;10325181;28;20081;-59
2024/02/06 06:41:53;;;;;;;8.32;4.85;;;;;;;;;;10327327;28;20035;-59
2024/02/06 06:46:53;;;;;;;13.98;5.85;;;;;;;;;;10322909;28;20080;-60
2024/02/06 06:51:54;;;;;;;12.48;7.07;;;;;;;;;;10313826;28;20030;-60
2024/02/06 06:56:54;;;;;;;12.07;9.40;;;;;;;;;;10324085;28;20081;-59
2024/02/06 07:01:56;;;;;;;19.52;10.55;;;;;;;;;;10325197;28;21022;-60
2024/02/06 07:06:56;;;;;;;24.40;11.50;;;;;;;;;;10317846;28;20089;-59
2024/02/06 07:11:57;;;;;;;17.20;11.88;;;;;;;;;;10321233;28;20030;-59
2024/02/06 07:16:58;;;;;;;31.05;11.30;;;;;;;;;;10320114;28;20046;-58
2024/02/06 07:21:59;;;;;;;20.27;11.95;;;;;;;;;;10323041;28;20045;-60
2024/02/06 07:27:00;;;;;;;15.90;11.30;;;;;;;;;;10325664;28;20043;-60
2024/02/06 07:32:01;;;;;;;15.85;11.77;;;;;;;;;;10325287;28;20088;-60
2024/02/06 07:37:02;;;;;;;19.90;12.73;;;;;;;;;;10325243;28;20383;-60
2024/02/06 07:42:02;;;;;;;21.88;14.48;;;;;;;;;;10325757;28;20125;-60
2024/02/06 07:47:03;;;;;;;18.58;14.07;;;;;;;;;;10325864;28;20033;-59
2024/02/06 07:52:05;;;;;;;23.98;14.95;;;;;;;;;;10324287;28;20030;-59
2024/02/06 07:57:06;;;;;;;21.85;14.00;;;;;;;;;;10322808;28;20045;-59
2024/02/06 08:02:07;;;;;;;22.92;14.77;;;;;;;;;;10301513;28;20125;-59
2024/02/06 08:07:07;;;;;;;21.92;14.00;;;;;;;;;;10283201;28;20041;-59
2024/02/06 08:12:08;;;;;;;20.90;13.73;;;;;;;;;;10272019;28;20034;-59
2024/02/06 08:17:09;;;;;;;24.33;14.23;;;;;;;;;;10287286;28;20034;-59
2024/02/06 08:22:09;;;;;;;21.60;14.43;;;;;;;;;;10281261;28;20109;-60
2024/02/06 08:27:10;;;;;;;25.05;14.98;;;;;;;;;;10282360;28;20039;-59
2024/02/06 08:32:11;;;;;;;20.85;14.68;;;;;;;;;;10279063;28;20054;-59
2024/02/06 08:37:11;;;;;;;25.63;13.85;;;;;;;;;;10286145;28;20062;-59
2024/02/06 08:42:12;;;;;;;23.05;14.90;;;;;;;;;;10296944;28;20542;-59
2024/02/06 08:47:13;;;;;;;22.90;15.55;;;;;;;;;;10301869;28;20034;-59
2024/02/06 08:52:14;;;;;;;22.80;14.63;;;;;;;;;;10289870;28;20490;-59
2024/02/06 08:57:14;;;;;;;21.55;15.55;;;;;;;;;;10291850;28;20476;-59
2024/02/06 09:02:15;;;;;;;20.83;15.10;;;;;;;;;;10288414;28;20042;-59
2024/02/06 09:07:16;;;;;;;22.55;16.10;;;;;;;;;;10288991;28;20038;-59
2024/02/06 09:12:16;;;;;;;25.73;15.63;;;;;;;;;;10283800;28;20039;-59
2024/02/06 09:17:19;;;;;;;24.70;15.32;;;;;;;;;;10278894;28;20038;-59
2024/02/06 09:22:20;;;;;;;26.85;16.33;;;;;;;;;;10277336;28;20034;-59
2024/02/06 09:27:20;;;;;;;24.50;15.77;;;;;;;;;;10277742;28;20104;-59
2024/02/06 09:32:21;;;;;;;27.27;16.95;;;;;;;;;;10291730;28;20038;-59
2024/02/06 09:37:21;;;;;;;22.48;16.20;;;;;;;;;;10283018;28;20073;-59
2024/02/06 09:42:23;;;;;;;21.63;15.65;;;;;;;;;;10275748;28;20035;-59
2024/02/06 09:47:26;;;;;;;24.10;16.15;;;;;;;;;;10284725;28;20031;-59
2024/02/06 09:52:28;;;;;;;24.25;16.80;;;;;;;;;;10285252;28;20038;-59
2024/02/06 09:57:30;;;;;;;23.30;16.83;;;;;;;;;;10294393;28;20035;-59
2024/02/06 10:02:31;;;;;;;25.95;18.17;;;;;;;;;;10292115;28;20061;-59
2024/02/06 10:07:32;;;;;;;23.92;16.63;;;;;;;;;;10293296;28;20367;-59
2024/02/06 10:12:33;;;;;;;26.85;17.50;;;;;;;;;;10280366;28;20401;-59
2024/02/06 10:17:38;;;;;;;23.10;17.30;;;;;;;;;;10293223;28;20030;-59
2024/02/06 10:22:40;;;;;;;23.13;16.27;;;;;;;;;;10277372;28;20074;-59
2024/02/06 10:27:40;;;;;;;27.30;17.17;;;;;;;;;;10275880;28;20039;-59
2024/02/06 10:32:41;;;;;;;26.75;17.80;;;;;;;;;;10277664;28;20474;-59
2024/02/06 10:37:41;;;;;;;22.17;16.67;;;;;;;;;;10286091;28;20081;-59
2024/02/06 10:42:42;;;;;;;26.60;18.48;;;;;;;;;;10278047;28;20038;-59
2024/02/06 10:47:42;;;;;;;31.00;18.33;;;;;;;;;;10292887;28;20034;-59
2024/02/06 10:52:43;;;;;;;25.65;17.50;;;;;;;;;;10286657;28;20038;-59
2024/02/06 10:57:46;;;;;;;31.45;18.92;;;;;;;;;;10277791;28;20037;-59
2024/02/06 11:02:56;;;;;;;27.10;18.55;;;;;;;;;;10279682;28;20130;-59
2024/02/06 11:08:03;;;;;;;27.42;19.88;;;;;;;;;;10281101;28;20030;-59
2024/02/06 11:13:07;;;;;;;26.50;19.88;;;;;;;;;;10283676;28;20426;-59
2024/02/06 11:18:12;;;;;;;36.70;19.65;;;;;;;;;;10274436;28;20054;-59
2024/02/06 11:23:18;;;;;;;30.77;19.90;;;;;;;;;;10272641;28;20122;-59
2024/02/06 11:28:19;;;;;;;27.45;19.25;;;;;;;;;;10283515;28;20033;-59
2024/02/06 11:33:30;;;;;;;28.58;20.00;;;;;;;;;;10277590;28;20081;-59
2024/02/06 11:38:30;;;;;;;28.58;18.80;;;;;;;;;;10275843;28;20066;-59
2024/02/06 11:43:31;;;;;;;25.20;18.35;;;;;;;;;;10288326;28;20059;-59
2024/02/06 11:48:31;;;;;;;24.40;18.13;;;;;;;;;;10296165;28;20482;-59
2024/02/06 11:53:32;;;;;;;29.23;19.58;;;;;;;;;;10288709;28;20037;-60
2024/02/06 11:58:35;;;;;;;24.63;18.42;;;;;;;;;;10283029;28;20046;-59
2024/02/06 12:03:36;;;;;;;24.42;17.85;;;;;;;;;;10275933;28;20461;-59
2024/02/06 12:08:36;;;;;;;25.02;17.73;;;;;;;;;;10297068;28;20045;-60
2024/02/06 12:13:37;;;;;;;27.60;19.20;;;;;;;;;;10277300;28;20062;-59
2024/02/06 12:18:38;;;;;;;28.95;17.77;;;;;;;;;;10286441;28;20498;-59
2024/02/06 12:23:38;;;;;;;24.05;17.92;;;;;;;;;;10279113;28;20038;-59
2024/02/06 12:28:42;;;;;;;29.02;19.48;;;;;;;;;;10274689;28;20034;-60
2024/02/06 12:33:42;;;;;;;25.02;18.48;;;;;;;;;;10277456;28;20113;-59
2024/02/06 12:38:43;;;;;;;25.48;18.13;;;;;;;;;;10292082;28;20466;-60
2024/02/06 12:43:43;;;;;;;23.75;18.02;;;;;;;;;;10275492;28;20077;-59
2024/02/06 12:48:47;;;;;;;26.67;18.85;;;;;;;;;;10279360;28;20045;-60
2024/02/06 12:53:48;;;;;;;24.15;17.17;;;;;;;;;;10294398;28;20050;-59
2024/02/06 12:58:49;;;;;;;23.52;17.20;;;;;;;;;;10282955;28;20803;-60
2024/02/06 13:03:59;;;;;;;27.17;17.77;;;;;;;;;;10286447;28;20602;-59
2024/02/06 13:08:59;;;;;;;23.63;17.55;;;;;;;;;;10288924;28;20034;-60
2024/02/06 13:14:00;;;;;;;23.02;17.38;;;;;;;;;;10319193;28;20039;-59
2024/02/06 13:19:01;;;;;;;23.45;17.23;;;;;;;;;;10324462;28;20030;-60
2024/02/06 13:24:06;;;;;;;24.50;18.38;;;;;;;;;;10316483;28;20387;-60
2024/02/06 13:29:07;;;;;;;22.30;16.88;;;;;;;;;;10311875;28;20114;-60
2024/02/06 13:34:08;;;;;;;22.40;16.88;;;;;;;;;;10330302;28;20029;-60
2024/02/06 13:39:10;;;;;;;23.38;16.50;;;;;;;;;;10327248;28;20054;-60
2024/02/06 13:44:11;;;;;;;21.77;17.13;;;;;;;;;;10319882;28;20041;-60
2024/02/06 13:49:11;;;;;;;26.50;18.92;;;;;;;;;;10329235;28;20027;-60
2024/02/06 13:54:15;;;;;;;23.17;15.55;;;;;;;;;;10304244;28;20077;-60
2024/02/06 13:59:15;;;;;;;23.33;17.35;;;;;;;;;;10318993;28;20045;-60
2024/02/06 14:04:16;;;;;;;23.25;16.85;;;;;;;;;;10315810;28;20023;-60
2024/02/06 14:09:17;;;;;;;23.40;17.05;;;;;;;;;;10322879;28;20269;-60
2024/02/06 14:14:19;;;;;;;25.50;16.83;;;;;;;;;;10327864;28;20352;-60
2024/02/06 14:19:21;;;;;;;25.77;17.00;;;;;;;;;;10327532;28;20101;-60
2024/02/06 14:24:23;;;;;;;22.02;16.63;;;;;;;;;;10312248;28;20430;-60
2024/02/06 14:29:24;;;;;;;21.45;16.42;;;;;;;;;;10323646;28;20102;-60
2024/02/06 14:34:24;;;;;;;27.23;17.90;;;;;;;;;;10327598;28;20478;-61
2024/02/06 14:39:25;;;;;;;23.50;17.13;;;;;;;;;;10313061;28;20556;-61
2024/02/06 14:44:25;;;;;;;28.38;17.10;;;;;;;;;;10303026;28;20042;-60
2024/02/06 14:49:26;;;;;;;26.38;16.98;;;;;;;;;;10326218;28;20537;-60
2024/02/06 14:54:27;;;;;;;21.65;16.50;;;;;;;;;;10313217;28;20450;-60
2024/02/06 14:59:29;;;;;;;24.65;17.25;;;;;;;;;;10303734;28;20090;-60
2024/02/06 15:04:31;;;;;;;29.08;16.95;;;;;;;;;;10293858;28;20030;-60
2024/02/06 15:09:32;;;;;;;23.15;17.02;;;;;;;;;;10322468;28;20363;-60
2024/02/06 15:14:32;;;;;;;23.30;15.93;;;;;;;;;;10316780;28;20034;-60
2024/02/06 15:19:34;;;;;;;24.08;16.65;;;;;;;;;;10321287;28;20109;-60
2024/02/06 15:24:34;;;;;;;22.40;16.48;;;;;;;;;;10300080;28;20060;-60
2024/02/06 15:29:36;;;;;;;21.02;15.77;;;;;;;;;;10320825;28;20481;-60
2024/02/06 15:34:37;;;;;;;20.63;16.00;;;;;;;;;;10312937;28;20030;-60
2024/02/06 15:39:52;;;;;;;18.65;15.05;;;;;;;;;;10316163;28;20034;-60
2024/02/06 15:44:53;;;;;;;24.42;15.00;;;;;;;;;;10308273;28;20035;-60
2024/02/06 15:49:54;;;;;;;20.80;14.82;;;;;;;;;;10317814;28;20034;-60
2024/02/06 15:54:54;;;;;;;19.40;15.02;;;;;;;;;;10301988;28;20036;-60
2024/02/06 15:59:55;;;;;;;17.95;13.73;;;;;;;;;;10313023;28;20080;-60
2024/02/06 16:04:57;;;;;;;18.88;14.50;;;;;;;;;;10317177;28;20069;-60
2024/02/06 16:10:02;;;;;;;20.80;14.32;;;;;;;;;;10321271;28;20030;-60
2024/02/06 16:15:03;;;;;;;19.70;14.30;;;;;;;;;;10324712;28;20034;-60
2024/02/06 16:20:08;;;;;;;17.33;13.95;;;;;;;;;;10325269;28;20242;-60
2024/02/06 16:25:08;;;;;;;19.98;14.07;;;;;;;;;;10324398;28;20084;-60
2024/02/06 16:30:10;;;;;;;19.10;14.32;;;;;;;;;;10325271;28;20026;-60
2024/02/06 16:35:10;;;;;;;18.85;13.43;;;;;;;;;;10324502;28;20534;-60
2024/02/06 16:40:13;;;;;;;18.65;13.63;;;;;;;;;;10324261;28;20054;-60
2024/02/06 16:45:13;;;;;;;19.73;14.07;;;;;;;;;;10325334;28;20073;-60
2024/02/06 16:50:15;;;;;;;18.98;14.32;;;;;;;;;;10320622;28;20590;-60
2024/02/06 16:55:16;;;;;;;18.38;13.13;;;;;;;;;;10323226;28;20029;-60
2024/02/06 17:00:17;;;;;;;19.45;14.07;;;;;;;;;;10331974;28;20533;-60
2024/02/06 17:05:22;;;;;;;19.88;13.75;;;;;;;;;;10310216;28;20328;-60
2024/02/06 17:10:22;;;;;;;18.98;13.55;;;;;;;;;;10306899;28;20452;-60
2024/02/06 17:15:23;;;;;;;18.08;13.25;;;;;;;;;;10318966;28;20037;-57
2024/02/06 17:20:24;;;;;;;20.08;14.27;;;;;;;;;;10317946;28;20031;-58
2024/02/06 17:25:24;;;;;;;21.83;15.40;;;;;;;;;;10304245;28;20457;-58
2024/02/06 17:30:25;;;;;;;18.20;13.82;;;;;;;;;;10323996;28;20022;-58
2024/02/06 17:35:25;;;;;;;23.42;14.55;;;;;;;;;;10324631;28;20050;-58
2024/02/06 17:40:26;;;;;;;21.52;15.60;;;;;;;;;;10326084;28;20284;-58
2024/02/06 17:45:27;;;;;;;19.65;13.73;;;;;;;;;;10330704;28;20037;-57
2024/02/06 17:50:27;;;;;;;19.20;14.25;;;;;;;;;;10323506;28;20034;-57
2024/02/06 17:55:28;;;;;;;26.00;14.05;;;;;;;;;;10309358;28;20030;-58
2024/02/06 18:00:29;;;;;;;33.63;13.55;;;;;;;;;;10310804;28;20393;-58
2024/02/06 18:05:30;;;;;;;18.70;13.77;;;;;;;;;;10300560;28;20070;-58
2024/02/06 18:10:30;;;;;;;22.80;14.32;;;;;;;;;;10305569;28;20293;-58
2024/02/06 18:15:31;;;;;;;18.05;13.27;;;;;;;;;;10314701;28;20038;-58
2024/02/06 18:20:31;;;;;;;21.40;15.55;;;;;;;;;;10321162;28;20030;-58
2024/02/06 18:25:32;;;;;;;20.33;14.50;;;;;;;;;;10330124;28;20037;-58
2024/02/06 18:30:34;;;;;;;19.90;14.43;;;;;;;;;;10329684;28;20092;-58
2024/02/06 18:35:36;;;;;;;21.67;13.90;;;;;;;;;;10326050;28;20092;-58
2024/02/06 18:40:36;;;;;;;20.88;14.82;;;;;;;;;;10314415;28;20128;-57
2024/02/06 18:45:40;;;;;;;21.38;14.05;;;;;;;;;;10326768;28;20026;-58
2024/02/06 18:50:41;;;;;;;19.98;13.85;;;;;;;;;;10325540;28;20497;-58
2024/02/06 18:55:42;;;;;;;18.45;13.88;;;;;;;;;;10326231;28;20026;-58
2024/02/06 19:00:42;;;;;;;18.30;13.18;;;;;;;;;;10313569;28;20509;-58
2024/02/06 19:05:44;;;;;;;18.13;13.15;;;;;;;;;;10311032;28;20061;-58
2024/02/06 19:10:45;;;;;;;17.35;13.20;;;;;;;;;;10325118;28;20292;-58
2024/02/06 19:15:45;;;;;;;17.98;12.57;;;;;;;;;;10320973;28;20160;-58
2024/02/06 19:20:46;;;;;;;15.65;12.52;;;;;;;;;;10325142;28;20439;-58
2024/02/06 19:25:47;;;;;;;17.55;12.90;;;;;;;;;;10322395;28;20025;-58
2024/02/06 19:30:48;;;;;;;14.65;11.57;;;;;;;;;;10323935;28;20037;-58
2024/02/06 19:35:48;;;;;;;18.42;13.60;;;;;;;;;;10285901;28;1148566;-57
2024/02/06 19:40:49;;;;;;;16.90;13.00;;;;;;;;;;10326484;28;20038;-58
2024/02/06 19:45:50;;;;;;;19.42;14.35;;;;;;;;;;10319823;28;20096;-58
2024/02/06 19:50:54;;;;;;;20.45;14.63;;;;;;;;;;10325254;28;20029;-58
2024/02/06 19:55:54;;;;;;;26.25;16.30;;;;;;;;;;10325276;28;20037;-58
2024/02/06 20:00:55;;;;;;;22.55;16.38;;;;;;;;;;10317356;28;20530;-58
2024/02/06 20:05:56;;;;;;;23.33;16.58;;;;;;;;;;10302273;28;20041;-58
2024/02/06 20:10:56;;;;;;;22.98;16.92;;;;;;;;;;10319856;28;20363;-57
2024/02/06 20:15:57;;;;;;;25.95;17.77;;;;;;;;;;10324811;28;20367;-58
2024/02/06 20:20:57;;;;;;;26.45;17.67;;;;;;;;;;10319183;28;20061;-57
2024/02/06 20:25:58;;;;;;;25.05;17.25;;;;;;;;;;10324810;28;20030;-58
2024/02/06 20:31:00;;;;;;;25.85;18.45;;;;;;;;;;10319503;28;20062;-58
2024/02/06 20:36:02;;;;;;;24.27;16.77;;;;;;;;;;10317545;28;20061;-58
2024/02/06 20:41:02;;;;;;;21.90;15.27;;;;;;;;;;10308564;28;20185;-58
2024/02/06 20:46:04;;;;;;;23.27;15.73;;;;;;;;;;10318452;28;20509;-58
2024/02/06 20:51:05;;;;;;;24.30;15.18;;;;;;;;;;10316601;28;20031;-58
2024/02/06 20:56:06;;;;;;;21.27;15.45;;;;;;;;;;10306794;28;20026;-57
2024/02/06 21:01:06;;;;;;;25.20;16.40;;;;;;;;;;10309170;28;20046;-57
2024/02/06 21:06:07;;;;;;;20.13;15.48;;;;;;;;;;10303232;28;20056;-58
2024/02/06 21:11:08;;;;;;;20.55;14.77;;;;;;;;;;10313116;28;20030;-57
2024/02/06 21:16:08;;;;;;;19.65;14.45;;;;;;;;;;10314720;28;20023;-58
2024/02/06 21:21:09;;;;;;;19.13;14.25;;;;;;;;;;10324343;28;20265;-57
2024/02/06 21:26:19;;;;;;;24.88;14.32;;;;;;;;;;10324101;28;20493;-58
2024/02/06 21:31:20;;;;;;;23.98;14.95;;;;;;;;;;10323169;28;20186;-58
2024/02/06 21:36:20;;;;;;;21.38;14.88;;;;;;;;;;10308461;28;20666;-57
2024/02/06 21:41:22;;;;;;;34.30;16.23;;;;;;;;;;10323869;28;20042;-57
2024/02/06 21:46:22;;;;;;;31.30;16.08;;;;;;;;;;10330137;28;20034;-58
2024/02/06 21:51:23;;;;;;;26.08;15.68;;;;;;;;;;10331152;28;20100;-57
2024/02/06 21:56:24;;;;;;;30.80;15.60;;;;;;;;;;10329571;28;20390;-57
2024/02/06 22:01:24;;;;;;;25.50;16.40;;;;;;;;;;10324837;28;20363;-57
2024/02/06 22:06:25;;;;;;;26.63;16.77;;;;;;;;;;10325604;28;20045;-57
2024/02/06 22:11:29;;;;;;;23.20;15.55;;;;;;;;;;10328457;28;20359;-57
2024/02/06 22:16:30;;;;;;;28.40;16.48;;;;;;;;;;10324868;28;20110;-57
2024/02/06 22:21:31;;;;;;;21.10;16.27;;;;;;;;;;10329889;28;20038;-57
2024/02/06 22:26:31;;;;;;;19.45;15.38;;;;;;;;;;10319247;28;20034;-57
2024/02/06 22:31:32;;;;;;;25.67;14.52;;;;;;;;;;10323714;28;20030;-57
2024/02/06 22:36:39;;;;;;;26.42;14.25;;;;;;;;;;10327664;28;20050;-57
2024/02/06 22:41:49;;;;;;;22.17;14.95;;;;;;;;;;10328578;28;20065;-57
2024/02/06 22:46:49;;;;;;;25.75;15.38;;;;;;;;;;10328654;28;20528;-57
2024/02/06 22:51:51;;;;;;;25.15;14.93;;;;;;;;;;10326627;28;20030;-57
2024/02/06 22:56:51;;;;;;;23.48;16.23;;;;;;;;;;10327652;28;20102;-57
2024/02/06 23:01:52;;;;;;;21.90;16.83;;;;;;;;;;10326781;28;20026;-57
2024/02/06 23:06:53;;;;;;;23.33;16.90;;;;;;;;;;10317765;28;20474;-58
2024/02/06 23:11:53;;;;;;;37.05;19.15;;;;;;;;;;10326313;28;20386;-58
2024/02/06 23:16:54;;;;;;;29.58;20.10;;;;;;;;;;10323270;28;20041;-58
2024/02/06 23:21:55;;;;;;;28.10;20.05;;;;;;;;;;10306849;28;20100;-58
2024/02/06 23:26:55;;;;;;;31.08;22.48;;;;;;;;;;10321940;28;20104;-57
2024/02/06 23:31:56;;;;;;;32.00;19.92;;;;;;;;;;10327394;28;20025;-58
2024/02/06 23:36:57;;;;;;;31.90;19.73;;;;;;;;;;10321449;28;20068;-57
2024/02/06 23:41:58;;;;;;;29.02;19.02;;;;;;;;;;10314227;28;20034;-58
2024/02/06 23:46:58;;;;;;;28.65;18.05;;;;;;;;;;10323436;28;20379;-58
2024/02/06 23:51:59;;;;;;;30.95;19.63;;;;;;;;;;10326338;28;20053;-58
2024/02/06 23:57:00;;;;;;;25.10;19.35;;;;;;;;;;10325565;28;20030;-58
